createdAt,value
2019-03-29T00:04:52.971Z,103035.45
2019-03-29T00:09:56.810Z,103028.00
2019-03-29T00:15:00.390Z,103027.99
2019-03-29T00:20:06.171Z,103020.97
2019-03-29T00:25:09.841Z,103021.88
2019-03-29T00:30:13.890Z,103021.00
2019-03-29T00:35:17.421Z,103018.81
2019-03-29T00:40:20.969Z,103005.25
2019-03-29T00:45:24.540Z,103005.22
2019-03-29T00:50:28.038Z,103003.01
2019-03-29T00:55:31.581Z,102997.78
2019-03-29T01:00:35.104Z,102990.77
2019-03-29T01:05:38.605Z,102982.08
2019-03-29T01:10:42.813Z,102995.66
2019-03-29T01:15:46.358Z,102980.75
2019-03-29T01:20:49.896Z,102975.97
2019-03-29T01:25:53.426Z,102978.16
2019-03-29T01:30:56.942Z,102976.82
2019-03-29T01:36:01.301Z,102979.44
2019-03-29T01:41:05.695Z,102976.43
2019-03-29T01:46:09.230Z,102967.71
2019-03-29T01:51:12.856Z,102960.67
2019-03-29T01:56:16.439Z,102946.39
2019-03-29T02:01:19.941Z,102948.33
2019-03-29T02:06:23.488Z,102944.48
2019-03-29T02:11:27.033Z,102933.68
2019-03-29T02:16:30.544Z,102930.23
2019-03-29T02:21:34.058Z,102926.78
2019-03-29T02:26:37.569Z,102925.45
2019-03-29T02:31:42.377Z,102924.98
2019-03-29T02:36:46.399Z,102917.53
2019-03-29T02:41:49.911Z,102927.52
2019-03-29T02:46:53.866Z,102928.79
2019-03-29T02:51:57.835Z,102917.43
2019-03-29T02:57:01.419Z,102923.12
2019-03-29T03:02:05.063Z,102922.61
2019-03-29T03:07:08.597Z,102921.26
2019-03-29T03:12:12.126Z,102918.27
2019-03-29T03:17:15.676Z,102917.80
2019-03-29T03:22:19.324Z,102923.45
2019-03-29T03:27:23.698Z,102910.36
2019-03-29T03:38:31.020Z,102919.73
2019-03-29T03:43:34.551Z,102926.95
2019-03-29T03:48:38.338Z,102923.01
2019-03-29T03:53:42.011Z,102912.55
2019-03-29T03:58:46.570Z,102906.86
2019-03-29T04:03:50.123Z,102909.91
2019-03-29T04:08:53.667Z,102908.18
2019-03-29T04:13:58.631Z,102908.23
2019-03-29T04:19:02.279Z,102902.18
2019-03-29T04:24:05.838Z,102900.45
2019-03-29T04:29:09.648Z,102889.50
2019-03-29T04:34:13.864Z,102882.92
2019-03-29T04:39:17.703Z,102886.77
2019-03-29T04:44:21.427Z,102887.07
2019-03-29T04:49:25.039Z,102892.19
2019-03-29T04:54:28.602Z,102893.91
2019-03-29T04:59:32.179Z,102892.15
2019-03-29T05:04:35.735Z,102892.46
2019-03-29T05:09:39.291Z,102897.13
2019-03-29T05:14:42.972Z,102904.95
2019-03-29T05:19:46.580Z,102904.32
2019-03-29T05:24:50.177Z,102902.63
2019-03-29T05:29:53.964Z,102912.31
2019-03-29T05:34:58.313Z,102905.34
2019-03-29T05:40:02.450Z,102902.77
2019-03-29T05:45:07.173Z,102896.63
2019-03-29T05:50:11.024Z,102901.90
2019-03-29T05:55:14.571Z,102902.42
2019-03-29T06:00:19.530Z,102899.97
2019-03-29T06:05:23.091Z,102903.02
2019-03-29T06:10:26.622Z,102913.18
2019-03-29T06:15:30.146Z,102897.19
2019-03-29T06:20:33.712Z,102902.11
2019-03-29T06:25:37.283Z,102892.67
2019-03-29T06:30:40.859Z,102885.34
2019-03-29T06:35:49.526Z,102890.70
2019-03-29T06:41:02.710Z,102883.38
2019-03-29T06:45:58.496Z,102885.22
2019-03-29T06:51:02.023Z,102875.64
2019-03-29T06:56:05.685Z,102877.84
2019-03-29T07:01:09.224Z,102873.50
2019-03-29T07:06:12.775Z,102879.14
2019-03-29T07:11:17.964Z,102871.23
2019-03-29T07:16:21.755Z,102879.48
2019-03-29T07:21:25.304Z,102873.78
2019-03-29T07:26:28.852Z,102882.04
2019-03-29T07:31:32.392Z,102887.20
2019-03-29T07:36:35.923Z,102885.35
2019-03-29T07:41:39.481Z,102880.89
2019-03-29T07:46:43.056Z,102871.16
2019-03-29T07:51:46.654Z,102871.45
2019-03-29T07:56:50.226Z,102874.30
2019-03-29T08:01:53.770Z,102878.06
2019-03-29T08:06:57.312Z,102870.28
2019-03-29T08:12:00.858Z,102869.98
2019-03-29T08:17:04.398Z,102871.50
2019-03-29T08:22:07.928Z,102870.33
2019-03-29T08:27:11.467Z,102855.54
2019-03-29T08:32:15.018Z,102853.52
2019-03-29T08:37:18.571Z,102856.75
2019-03-29T08:42:22.104Z,102852.11
2019-03-29T08:47:25.631Z,102847.93
2019-03-29T08:52:29.265Z,102849.36
2019-03-29T08:57:32.798Z,102841.27
2019-03-29T09:02:36.595Z,102841.89
2019-03-29T09:07:44.963Z,102838.28
2019-03-29T09:12:45.561Z,102837.67
2019-03-29T09:17:49.205Z,102835.34
2019-03-29T09:22:52.756Z,102831.31
2019-03-29T09:27:56.297Z,102834.83
2019-03-29T09:32:59.834Z,102832.42
2019-03-29T09:38:03.392Z,102820.30
2019-03-29T09:43:08.030Z,102810.69
2019-03-29T09:48:12.063Z,102804.73
2019-03-29T09:53:15.617Z,102801.73
2019-03-29T09:58:19.159Z,102793.53
2019-03-29T10:03:22.710Z,102792.77
2019-03-29T10:08:26.256Z,102789.55
2019-03-29T10:13:29.793Z,102783.13
2019-03-29T10:18:33.364Z,102776.22
2019-03-29T10:23:36.904Z,102769.20
2019-03-29T10:28:40.458Z,102760.16
2019-03-29T10:33:43.994Z,102750.73
2019-03-29T10:38:47.575Z,102746.53
2019-03-29T10:43:51.117Z,102743.98
2019-03-29T10:48:54.667Z,102735.84
2019-03-29T10:53:58.193Z,102722.13
2019-03-29T10:59:01.723Z,102715.59
2019-03-29T11:04:05.270Z,102712.11
2019-03-29T11:09:08.855Z,102711.66
2019-03-29T11:14:12.392Z,102692.52
2019-03-29T11:19:15.951Z,102684.02
2019-03-29T11:24:19.482Z,102681.37
2019-03-29T11:29:23.023Z,102671.53
2019-03-29T11:34:26.601Z,102669.33
2019-03-29T11:39:30.167Z,102665.96
2019-03-29T11:44:37.385Z,102665.30
2019-03-29T11:49:40.915Z,102664.72
2019-03-29T11:54:51.230Z,102655.73
2019-03-29T11:59:56.031Z,102646.23
2019-03-29T12:05:01.058Z,102633.79
2019-03-29T12:10:06.396Z,102630.06
2019-03-29T12:15:10.558Z,102615.13
2019-03-29T12:20:14.102Z,102618.66
2019-03-29T12:25:17.649Z,102611.64
2019-03-29T12:30:31.138Z,102609.20
2019-03-29T12:35:29.713Z,102599.00
2019-03-29T12:40:48.822Z,102585.34
2019-03-29T12:46:01.468Z,102585.27
2019-03-29T12:51:14.833Z,102576.85
2019-03-29T12:56:42.194Z,102565.30
2019-03-29T13:01:50.973Z,102563.17
2019-03-29T13:07:06.862Z,102559.55
2019-03-29T13:12:10.750Z,102553.36
2019-03-29T13:17:15.771Z,102548.69
2019-03-29T13:22:20.501Z,102536.70
2019-03-29T13:27:26.284Z,102533.18
2019-03-29T13:32:33.593Z,102520.31
2019-03-29T13:37:39.168Z,102517.86
2019-03-29T13:42:45.013Z,102510.28
2019-03-29T13:47:50.067Z,102500.44
2019-03-29T13:52:53.662Z,102494.73
2019-03-29T13:57:57.194Z,102488.50
2019-03-29T14:03:00.732Z,102486.05
2019-03-29T14:08:04.299Z,102479.25
2019-03-29T14:13:07.828Z,102476.70
2019-03-29T14:18:11.395Z,102470.53
2019-03-29T14:23:14.931Z,102457.98
2019-03-29T14:28:18.468Z,102451.55
2019-03-29T14:33:22.120Z,102444.04
2019-03-29T14:38:25.662Z,102443.83
2019-03-29T14:43:29.195Z,102431.00
2019-03-29T14:48:32.736Z,102433.27
2019-03-29T14:53:36.286Z,102420.70
2019-03-29T14:58:39.829Z,102413.12
2019-03-29T15:03:43.372Z,102409.53
2019-03-29T15:08:49.734Z,102405.84
2019-03-29T15:13:52.533Z,102401.32
2019-03-29T15:18:56.090Z,102391.41
2019-03-29T15:24:00.262Z,102382.95
2019-03-29T15:29:04.512Z,102382.14
2019-03-29T15:34:08.311Z,102369.93
2019-03-29T15:39:11.851Z,102366.19
2019-03-29T15:44:15.414Z,102363.83
2019-03-29T15:49:18.966Z,102354.44
2019-03-29T15:54:22.517Z,102347.27
2019-03-29T15:59:26.151Z,102340.19
2019-03-29T16:04:29.686Z,102339.75
2019-03-29T16:09:33.410Z,102342.13
2019-03-29T16:14:37.046Z,102330.52
2019-03-29T16:19:41.374Z,102324.98
2019-03-29T16:24:45.870Z,102318.90
2019-03-29T16:29:50.518Z,102317.31
2019-03-29T16:34:54.195Z,102303.66
2019-03-29T16:39:57.723Z,102296.02
2019-03-29T16:45:01.280Z,102292.03
2019-03-29T16:50:05.661Z,102290.74
2019-03-29T16:55:13.641Z,102288.34
2019-03-29T17:00:15.040Z,102285.67
2019-03-29T17:05:21.181Z,102281.32
2019-03-29T17:10:24.777Z,102283.11
2019-03-29T17:15:30.606Z,102277.87
2019-03-29T17:20:34.145Z,102270.51
2019-03-29T17:25:37.775Z,102276.64
2019-03-29T17:30:48.633Z,102271.31
2019-03-29T17:35:52.269Z,102273.31
2019-03-29T17:41:02.934Z,102270.07
2019-03-29T17:46:16.234Z,102268.13
2019-03-29T17:51:11.912Z,102266.52
2019-03-29T17:56:15.496Z,102271.41
2019-03-29T18:01:19.080Z,102265.98
2019-03-29T18:06:22.635Z,102276.30
2019-03-29T18:11:26.185Z,102269.53
2019-03-29T18:16:31.107Z,102266.49
2019-03-29T18:21:34.853Z,102278.70
2019-03-29T18:26:38.404Z,102279.17
2019-03-29T18:31:41.945Z,102278.81
2019-03-29T18:36:49.373Z,102280.96
2019-03-29T18:41:52.903Z,102281.36
2019-03-29T18:46:56.442Z,102275.51
2019-03-29T18:52:00.884Z,102278.78
2019-03-29T18:57:04.770Z,102285.71
2019-03-29T19:02:08.309Z,102293.52
2019-03-29T19:07:11.858Z,102292.47
2019-03-29T19:12:15.442Z,102280.73
2019-03-29T19:17:19.207Z,102278.30
2019-03-29T19:22:22.802Z,102278.78
2019-03-29T19:27:26.408Z,102275.66
2019-03-29T19:32:29.961Z,102273.94
2019-03-29T19:37:33.540Z,102277.66
2019-03-29T19:42:37.105Z,102276.09
2019-03-29T19:47:40.648Z,102278.05
2019-03-29T19:52:44.188Z,102277.45
2019-03-29T19:57:47.882Z,102271.10
2019-03-29T20:02:51.526Z,102278.82
2019-03-29T20:07:56.101Z,102268.16
2019-03-29T20:13:00.095Z,102259.74
2019-03-29T20:18:03.696Z,102264.73
2019-03-29T20:23:07.268Z,102271.55
2019-03-29T20:28:10.858Z,102268.18
2019-03-29T20:33:14.400Z,102270.09
2019-03-29T20:38:18.009Z,102260.81
2019-03-29T20:43:21.536Z,102262.73
2019-03-29T20:48:25.080Z,102258.77
2019-03-29T20:53:28.634Z,102255.64
2019-03-29T20:58:32.296Z,102248.34
2019-03-29T21:03:35.968Z,102246.21
2019-03-29T21:08:39.490Z,102262.58
2019-03-29T21:13:43.178Z,102235.25
2019-03-29T21:18:46.764Z,102235.44
2019-03-29T21:23:50.323Z,102230.11
2019-03-29T21:28:58.282Z,102223.06
2019-03-29T21:34:12.919Z,102215.86
2019-03-29T21:39:23.632Z,102219.33
2019-03-29T21:44:31.346Z,102208.48
2019-03-29T21:49:43.821Z,102204.51
2019-03-29T21:54:51.893Z,102200.74
2019-03-29T22:00:01.824Z,102196.88
2019-03-29T22:05:12.686Z,102200.81
2019-03-29T22:10:32.484Z,102196.46
2019-03-29T22:15:37.513Z,102196.92
2019-03-29T22:20:56.380Z,102202.34
2019-03-29T22:26:09.371Z,102198.99
2019-03-29T22:31:22.769Z,102196.77
2019-03-29T22:36:27.421Z,102193.76
2019-03-29T22:41:36.068Z,102196.81
2019-03-29T22:46:42.474Z,102190.45
2019-03-29T22:52:00.621Z,102196.58
2019-03-29T22:57:07.217Z,102190.00
2019-03-29T23:02:25.961Z,102187.48
2019-03-29T23:07:29.629Z,102181.88
2019-03-29T23:12:33.229Z,102172.70
2019-03-29T23:17:36.778Z,102158.95
2019-03-29T23:22:40.510Z,102156.72
2019-03-29T23:27:44.073Z,102148.77
2019-03-29T23:32:47.673Z,102150.61
2019-03-29T23:37:51.243Z,102147.11
2019-03-29T23:42:54.770Z,102141.94
2019-03-29T23:47:58.399Z,102139.86
2019-03-29T23:53:02.258Z,102141.69
2019-03-29T23:58:05.888Z,102127.33
